createdAt,value
2023-04-21T00:00:48.618Z,79.27
2023-04-21T00:01:49.005Z,79.17
2023-04-21T00:02:49.319Z,78.97
2023-04-21T00:03:49.666Z,78.76
2023-04-21T00:04:50.061Z,78.56
2023-04-21T00:05:50.029Z,78.35
2023-04-21T00:06:54.319Z,78.25
2023-04-21T00:07:50.541Z,78.05
2023-04-21T00:08:50.895Z,78.15
2023-04-21T00:09:51.122Z,77.94
2023-04-21T00:10:51.409Z,77.84
2023-04-21T00:11:51.753Z,77.94
2023-04-21T00:12:52.073Z,77.64
2023-04-21T00:13:52.417Z,77.64
2023-04-21T00:14:52.753Z,77.43
2023-04-21T00:15:53.121Z,76.92
2023-04-21T00:16:53.415Z,76.81
2023-04-21T00:17:53.765Z,76.72
2023-04-21T00:18:54.154Z,76.51
2023-04-21T00:19:54.401Z,76.51
2023-04-21T00:20:54.606Z,76.37
2023-04-21T00:21:54.936Z,76.27
2023-04-21T00:22:55.270Z,76.27
2023-04-21T00:23:55.621Z,76.17
2023-04-21T00:24:55.816Z,76.31
2023-04-21T00:25:56.170Z,76.31
2023-04-21T00:26:56.537Z,76.40
2023-04-21T00:27:56.749Z,76.61
2023-04-21T00:28:57.085Z,76.92
2023-04-21T00:29:57.424Z,77.02
2023-04-21T00:30:57.786Z,77.23
2023-04-21T00:31:58.157Z,77.47
2023-04-21T00:32:58.443Z,77.67
2023-04-21T00:33:58.695Z,77.77
2023-04-21T00:34:58.957Z,77.87
2023-04-21T00:35:59.221Z,78.08
2023-04-21T00:36:59.590Z,78.19
2023-04-21T00:37:59.812Z,78.42
2023-04-21T00:39:00.165Z,78.53
2023-04-21T00:40:00.361Z,78.63
2023-04-21T00:41:00.698Z,78.63
2023-04-21T00:42:00.935Z,78.63
2023-04-21T00:43:01.249Z,78.74
2023-04-21T00:44:01.612Z,78.74
2023-04-21T00:45:01.901Z,78.77
2023-04-21T00:46:02.236Z,78.77
2023-04-21T00:47:02.745Z,78.87
2023-04-21T00:48:02.956Z,78.87
2023-04-21T00:49:03.144Z,78.87
2023-04-21T00:50:03.484Z,78.97
2023-04-21T00:51:03.818Z,78.97
2023-04-21T00:52:04.175Z,79.01
2023-04-21T00:53:04.540Z,79.01
2023-04-21T00:54:04.751Z,79.01
2023-04-21T00:55:05.054Z,79.01
2023-04-21T00:56:05.418Z,79.11
2023-04-21T00:57:05.650Z,79.11
2023-04-21T00:58:06.009Z,79.11
2023-04-21T00:59:06.321Z,79.11
2023-04-21T01:00:06.647Z,79.11
2023-04-21T01:01:07.058Z,79.11
2023-04-21T01:02:07.289Z,79.11
2023-04-21T01:03:07.805Z,79.11
2023-04-21T01:04:08.006Z,79.11
2023-04-21T01:05:08.141Z,79.11
2023-04-21T01:06:08.498Z,79.01
2023-04-21T01:07:08.816Z,78.94
2023-04-21T01:08:09.161Z,79.01
2023-04-21T01:09:09.492Z,78.91
2023-04-21T01:10:09.848Z,78.91
2023-04-21T01:11:10.132Z,78.81
2023-04-21T01:12:10.480Z,78.70
2023-04-21T01:13:10.829Z,78.70
2023-04-21T01:14:11.064Z,78.60
2023-04-21T01:15:11.371Z,78.70
2023-04-21T01:16:11.769Z,78.33
2023-04-21T01:17:11.983Z,78.33
2023-04-21T01:18:12.226Z,78.53
2023-04-21T01:19:12.516Z,78.43
2023-04-21T01:20:12.845Z,78.53
2023-04-21T01:21:13.054Z,78.64
2023-04-21T01:22:13.405Z,78.64
2023-04-21T01:23:13.699Z,78.64
2023-04-21T01:24:14.014Z,78.64
2023-04-21T01:25:14.367Z,78.74
2023-04-21T01:26:14.650Z,78.33
2023-04-21T01:27:15.021Z,78.12
2023-04-21T01:28:15.318Z,78.23
2023-04-21T01:29:15.619Z,78.33
2023-04-21T01:30:15.922Z,78.23
2023-04-21T01:31:16.221Z,78.27
2023-04-21T01:32:16.667Z,78.36
2023-04-21T01:33:16.960Z,78.47
2023-04-21T01:34:17.159Z,78.47
2023-04-21T01:35:17.480Z,78.57
2023-04-21T01:36:17.771Z,78.78
2023-04-21T01:37:18.121Z,78.78
2023-04-21T01:38:19.414Z,78.78
2023-04-21T01:39:18.661Z,78.67
2023-04-21T01:40:18.865Z,78.78
2023-04-21T01:41:19.148Z,78.88
2023-04-21T01:42:19.455Z,78.98
2023-04-21T01:43:19.803Z,78.98
2023-04-21T01:44:19.980Z,79.08
2023-04-21T01:45:20.284Z,79.08
2023-04-21T01:46:20.643Z,78.78
2023-04-21T01:47:20.944Z,78.78
2023-04-21T01:48:21.253Z,78.88
2023-04-21T01:49:21.572Z,78.88
2023-04-21T01:50:21.843Z,78.98
2023-04-21T01:51:22.166Z,78.88
2023-04-21T01:52:22.430Z,78.88
2023-04-21T01:53:22.762Z,78.78
2023-04-21T01:54:23.010Z,78.78
2023-04-21T01:55:23.291Z,78.71
2023-04-21T01:56:23.551Z,78.81
2023-04-21T01:57:23.821Z,78.71
2023-04-21T01:58:24.108Z,78.61
2023-04-21T01:59:24.411Z,78.61
2023-04-21T02:00:24.644Z,78.61
2023-04-21T02:01:25.061Z,78.61
2023-04-21T02:02:25.412Z,78.71
2023-04-21T02:03:25.747Z,78.61
2023-04-21T02:04:26.012Z,78.61
2023-04-21T02:05:26.130Z,78.61
2023-04-21T02:06:26.415Z,78.40
2023-04-21T02:07:26.795Z,78.06
2023-04-21T02:08:27.020Z,77.85
2023-04-21T02:09:27.302Z,77.55
2023-04-21T02:10:27.509Z,77.68
2023-04-21T02:12:28.518Z,77.89
2023-04-21T02:13:28.725Z,77.55
2023-04-21T02:14:28.944Z,77.44
2023-04-21T02:15:29.315Z,77.55
2023-04-21T02:16:29.526Z,77.34
2023-04-21T02:17:29.851Z,77.34
2023-04-21T02:18:30.167Z,77.13
2023-04-21T02:19:30.463Z,77.23
2023-04-21T02:20:30.795Z,77.13
2023-04-21T02:21:31.144Z,77.23
2023-04-21T02:22:31.441Z,77.27
2023-04-21T02:23:31.706Z,77.37
2023-04-21T02:24:32.026Z,77.48
2023-04-21T02:25:32.326Z,77.37
2023-04-21T02:26:32.652Z,77.27
2023-04-21T02:27:32.989Z,77.06
2023-04-21T02:28:33.299Z,77.27
2023-04-21T02:29:33.609Z,77.27
2023-04-21T02:30:33.931Z,77.37
2023-04-21T02:31:40.420Z,77.37
2023-04-21T02:32:35.743Z,77.48
2023-04-21T02:33:34.918Z,77.58
2023-04-21T02:34:35.205Z,77.58
2023-04-21T02:35:35.603Z,77.48
2023-04-21T02:36:35.870Z,77.68
2023-04-21T02:37:36.194Z,77.68
2023-04-21T02:38:36.517Z,77.68
2023-04-21T02:39:36.808Z,77.48
2023-04-21T02:40:37.129Z,77.48
2023-04-21T02:41:37.435Z,77.48
2023-04-21T02:42:37.737Z,77.58
2023-04-21T02:43:38.100Z,77.62
2023-04-21T02:44:38.311Z,77.82
2023-04-21T02:45:38.582Z,77.72
2023-04-21T02:46:38.955Z,77.51
2023-04-21T02:47:39.258Z,77.72
2023-04-21T02:48:39.556Z,77.51
2023-04-21T02:49:39.844Z,77.62
2023-04-21T02:50:40.167Z,77.75
2023-04-21T02:51:40.461Z,77.96
2023-04-21T02:52:40.782Z,77.96
2023-04-21T02:53:41.108Z,77.86
2023-04-21T02:54:41.418Z,77.86
2023-04-21T02:55:41.752Z,77.86
2023-04-21T02:56:42.017Z,77.96
2023-04-21T02:57:42.345Z,77.96
2023-04-21T02:58:42.662Z,78.06
2023-04-21T02:59:42.955Z,77.96
2023-04-21T03:00:43.266Z,77.75
2023-04-21T03:01:43.560Z,77.86
2023-04-21T03:02:44.004Z,77.55
2023-04-21T03:03:44.282Z,77.65
2023-04-21T03:04:44.415Z,77.75
2023-04-21T03:05:44.785Z,77.75
2023-04-21T03:06:45.108Z,77.75
2023-04-21T03:07:45.368Z,77.24
2023-04-21T03:08:45.713Z,76.93
2023-04-21T03:09:46.006Z,77.14
2023-04-21T03:10:46.364Z,77.34
2023-04-21T03:11:46.609Z,77.45
2023-04-21T03:12:46.913Z,77.65
2023-04-21T03:13:47.233Z,77.34
2023-04-21T03:14:47.552Z,77.58
2023-04-21T03:15:47.868Z,77.58
2023-04-21T03:16:48.212Z,77.69
2023-04-21T03:17:48.535Z,77.58
2023-04-21T03:18:48.754Z,77.69
2023-04-21T03:19:49.080Z,77.58
2023-04-21T03:20:49.385Z,77.69
2023-04-21T03:21:49.718Z,77.79
2023-04-21T03:22:50.019Z,78.00
2023-04-21T03:23:50.334Z,78.20
2023-04-21T03:24:50.642Z,78.30
2023-04-21T03:25:50.938Z,78.41
2023-04-21T03:26:51.226Z,78.41
2023-04-21T03:27:51.585Z,78.10
2023-04-21T03:28:51.942Z,77.79
2023-04-21T03:29:52.118Z,77.79
2023-04-21T03:30:52.426Z,77.89
2023-04-21T03:31:52.797Z,78.10
2023-04-21T03:32:53.111Z,78.20
2023-04-21T03:33:53.411Z,78.10
2023-04-21T03:34:53.723Z,78.00
2023-04-21T03:35:54.051Z,77.69
2023-04-21T03:36:54.363Z,77.79
2023-04-21T03:37:54.735Z,77.48
2023-04-21T03:38:56.436Z,77.48
2023-04-21T03:39:55.303Z,77.58
2023-04-21T03:40:55.597Z,77.58
2023-04-21T03:41:55.905Z,77.48
2023-04-21T03:42:56.228Z,77.69
2023-04-21T03:43:56.563Z,77.93
2023-04-21T03:44:56.916Z,78.14
2023-04-21T03:45:57.224Z,78.03
2023-04-21T03:46:57.577Z,78.14
2023-04-21T03:47:57.845Z,78.24
2023-04-21T03:48:58.056Z,78.44
2023-04-21T03:49:58.266Z,78.34
2023-04-21T03:50:58.624Z,78.34
2023-04-21T03:51:58.958Z,78.44
2023-04-21T03:52:59.168Z,78.44
2023-04-21T03:53:59.549Z,78.44
2023-04-21T03:54:59.780Z,78.55
2023-04-21T03:56:00.126Z,78.65
2023-04-21T03:57:00.328Z,78.65
2023-04-21T03:58:00.657Z,78.75
2023-04-21T03:59:01.036Z,78.75
2023-04-21T04:00:01.229Z,78.65
2023-04-21T04:01:01.582Z,78.55
2023-04-21T04:02:01.855Z,78.65
2023-04-21T04:03:02.201Z,78.55
2023-04-21T04:04:02.753Z,78.55
2023-04-21T04:05:02.660Z,78.55
2023-04-21T04:06:02.965Z,78.44
2023-04-21T04:07:03.322Z,78.44
2023-04-21T04:08:03.682Z,78.44
2023-04-21T04:09:03.922Z,78.34
2023-04-21T04:10:04.152Z,78.14
2023-04-21T04:11:04.358Z,77.93
2023-04-21T04:12:04.715Z,77.93
2023-04-21T04:13:04.986Z,77.93
2023-04-21T04:14:05.192Z,78.03
2023-04-21T04:15:05.417Z,77.58
2023-04-21T04:16:05.678Z,77.62
2023-04-21T04:17:05.884Z,77.62
2023-04-21T04:18:06.229Z,77.62
2023-04-21T04:19:06.437Z,77.62
2023-04-21T04:20:06.687Z,77.62
2023-04-21T04:21:06.923Z,77.72
2023-04-21T04:22:07.154Z,77.72
2023-04-21T04:23:07.479Z,77.62
2023-04-21T04:24:07.860Z,77.62
2023-04-21T04:25:08.101Z,77.62
2023-04-21T04:26:08.327Z,77.62
2023-04-21T04:27:08.574Z,77.72
2023-04-21T04:28:08.805Z,77.72
2023-04-21T04:29:09.068Z,77.48
2023-04-21T04:30:09.293Z,77.38
2023-04-21T04:31:09.558Z,77.28
2023-04-21T04:32:09.791Z,77.07
2023-04-21T04:33:10.089Z,77.17
2023-04-21T04:34:10.378Z,77.38
2023-04-21T04:35:10.591Z,77.17
2023-04-21T04:36:10.840Z,76.86
2023-04-21T04:37:11.098Z,77.17
2023-04-21T04:38:11.312Z,77.28
2023-04-21T04:39:11.664Z,77.48
2023-04-21T04:40:11.882Z,77.58
2023-04-21T04:41:12.151Z,77.58
2023-04-21T04:42:12.359Z,77.48
2023-04-21T04:43:12.713Z,77.38
2023-04-21T04:44:12.934Z,77.38
2023-04-21T04:45:13.320Z,77.45
2023-04-21T04:46:13.590Z,77.34
2023-04-21T04:47:13.842Z,77.34
2023-04-21T04:48:14.105Z,77.45
2023-04-21T04:49:14.329Z,77.34
2023-04-21T04:50:14.581Z,77.24
2023-04-21T04:51:14.802Z,77.34
2023-04-21T04:52:15.051Z,77.34
2023-04-21T04:53:15.267Z,77.20
2023-04-21T04:54:15.513Z,77.10
2023-04-21T04:55:15.754Z,76.79
2023-04-21T04:56:16.006Z,76.65
2023-04-21T04:57:16.280Z,76.00
2023-04-21T04:58:16.541Z,75.11
2023-04-21T04:59:16.829Z,74.36
2023-04-21T05:00:17.157Z,73.57
2023-04-21T05:01:17.574Z,72.11
2023-04-21T05:02:17.741Z,71.04
2023-04-21T05:03:18.057Z,69.79
2023-04-21T05:04:18.317Z,68.63
2023-04-21T05:05:18.428Z,68.12
2023-04-21T05:06:18.701Z,68.52
2023-04-21T05:07:18.929Z,68.55
2023-04-21T05:08:19.336Z,68.38
2023-04-21T05:09:19.547Z,68.73
2023-04-21T05:10:19.892Z,69.37
2023-04-21T05:11:20.347Z,70.09
2023-04-21T05:12:20.558Z,70.53
2023-04-21T05:13:20.788Z,70.94
2023-04-21T05:14:21.358Z,71.39
2023-04-21T05:15:21.373Z,71.59
2023-04-21T05:16:21.631Z,71.69
2023-04-21T05:17:21.986Z,71.80
2023-04-21T05:18:22.327Z,71.66
2023-04-21T05:19:22.522Z,71.11
2023-04-21T05:20:22.756Z,69.95
2023-04-21T05:21:23.014Z,69.14
2023-04-21T05:22:23.226Z,68.39
2023-04-21T05:23:23.459Z,66.21
2023-04-21T05:24:23.716Z,65.37
2023-04-21T05:25:23.918Z,65.54
2023-04-21T05:26:24.268Z,64.49
2023-04-21T05:27:24.620Z,64.36
2023-04-21T05:28:24.935Z,64.12
2023-04-21T05:29:25.126Z,63.38
2023-04-21T05:30:25.691Z,62.54
2023-04-21T05:31:25.834Z,62.10
2023-04-21T05:32:26.324Z,61.36
2023-04-21T05:33:26.386Z,60.72
2023-04-21T05:34:26.607Z,60.92
2023-04-21T05:35:26.828Z,59.19
2023-04-21T05:36:27.064Z,59.50
2023-04-21T05:37:27.298Z,59.91
2023-04-21T05:38:27.602Z,60.11
2023-04-21T05:39:27.822Z,59.77
2023-04-21T05:40:28.079Z,59.88
2023-04-21T05:41:28.330Z,59.27
2023-04-21T05:42:28.564Z,59.37
2023-04-21T05:43:28.818Z,59.77
2023-04-21T05:44:29.063Z,59.37
2023-04-21T05:45:29.337Z,59.14
2023-04-21T05:46:29.611Z,58.83
2023-04-21T05:47:29.932Z,58.91
2023-04-21T05:48:30.150Z,58.60
2023-04-21T05:49:30.380Z,58.58
2023-04-21T05:50:30.682Z,57.97
2023-04-21T05:51:30.894Z,58.06
2023-04-21T05:52:31.157Z,57.99
2023-04-21T05:53:31.446Z,58.27
2023-04-21T05:54:31.676Z,58.47
2023-04-21T05:55:31.918Z,57.05
2023-04-21T05:56:33.163Z,57.15
2023-04-21T05:57:32.484Z,57.56
2023-04-21T05:58:32.744Z,57.43
2023-04-21T05:59:32.981Z,56.70
2023-04-21T06:00:33.231Z,56.90
2023-04-21T06:01:33.467Z,56.97
2023-04-21T06:02:33.814Z,55.52
2023-04-21T06:03:34.107Z,56.05
2023-04-21T06:04:34.485Z,55.65
2023-04-21T06:05:34.537Z,55.85
2023-04-21T06:06:34.787Z,55.85
2023-04-21T06:07:34.996Z,56.36
2023-04-21T06:08:35.264Z,56.44
2023-04-21T06:09:35.506Z,56.23
2023-04-21T06:10:35.766Z,55.60
2023-04-21T06:11:36.018Z,55.60
2023-04-21T06:12:36.276Z,55.68
2023-04-21T06:13:38.612Z,54.97
2023-04-21T06:14:36.876Z,54.97
2023-04-21T06:15:37.080Z,54.76
2023-04-21T06:16:37.334Z,54.66
2023-04-21T06:17:37.571Z,54.49
2023-04-21T06:18:37.855Z,54.69
2023-04-21T06:19:38.078Z,54.69
2023-04-21T06:20:38.334Z,54.89
2023-04-21T06:21:38.592Z,55.12
2023-04-21T06:22:38.848Z,55.22
2023-04-21T06:23:39.147Z,55.55
2023-04-21T06:24:39.378Z,56.36
2023-04-21T06:25:39.652Z,56.87
2023-04-21T06:26:39.888Z,56.99
2023-04-21T06:27:40.138Z,57.84
2023-04-21T06:28:40.396Z,57.76
2023-04-21T06:29:40.633Z,58.29
2023-04-21T06:30:40.911Z,59.11
2023-04-21T06:31:41.155Z,59.75
2023-04-21T06:32:41.389Z,60.28
2023-04-21T06:33:41.634Z,61.33
2023-04-21T06:34:41.844Z,61.76
2023-04-21T06:35:42.111Z,62.10
2023-04-21T06:36:42.307Z,63.15
2023-04-21T06:37:42.593Z,63.58
2023-04-21T06:38:42.803Z,64.43
2023-04-21T06:39:43.055Z,65.17
2023-04-21T06:40:43.295Z,65.99
2023-04-21T06:41:43.541Z,66.39
2023-04-21T06:42:43.800Z,66.70
2023-04-21T06:43:44.031Z,66.83
2023-04-21T06:44:44.274Z,67.14
2023-04-21T06:45:44.603Z,67.24
2023-04-21T06:46:44.912Z,67.35
2023-04-21T06:47:45.205Z,67.35
2023-04-21T06:48:45.458Z,67.85
2023-04-21T06:49:45.671Z,67.45
2023-04-21T06:50:45.886Z,67.14
2023-04-21T06:51:46.243Z,67.35
2023-04-21T06:52:46.618Z,67.35
2023-04-21T06:53:46.903Z,67.45
2023-04-21T06:54:47.116Z,67.55
2023-04-21T06:55:47.356Z,65.81
2023-04-21T06:56:47.599Z,66.83
2023-04-21T06:57:47.840Z,66.12
2023-04-21T06:58:48.119Z,65.00
2023-04-21T06:59:48.338Z,63.98
2023-04-21T07:00:48.586Z,64.76
2023-04-21T07:01:48.864Z,64.76
2023-04-21T07:02:49.251Z,63.75
2023-04-21T07:03:49.471Z,64.36
2023-04-21T07:04:49.760Z,64.87
2023-04-21T07:05:50.017Z,65.37
2023-04-21T07:06:50.254Z,64.84
2023-04-21T07:07:50.510Z,64.12
2023-04-21T07:08:50.736Z,63.10
2023-04-21T07:09:51.076Z,62.80
2023-04-21T07:10:51.478Z,63.00
2023-04-21T07:11:51.657Z,62.80
2023-04-21T07:12:52.033Z,62.59
2023-04-21T07:13:52.250Z,62.08
2023-04-21T07:14:52.490Z,62.29
2023-04-21T07:15:53.690Z,62.08
2023-04-21T07:16:53.071Z,61.98
2023-04-21T07:17:53.348Z,62.18
2023-04-21T07:18:55.112Z,62.39
2023-04-21T07:19:53.892Z,62.87
2023-04-21T07:20:54.136Z,62.87
2023-04-21T07:21:54.332Z,62.05
2023-04-21T07:22:54.705Z,61.85
2023-04-21T07:23:54.953Z,61.54
2023-04-21T07:24:55.162Z,61.54
2023-04-21T07:25:55.530Z,61.75
2023-04-21T07:26:55.726Z,61.95
2023-04-21T07:27:56.107Z,61.85
2023-04-21T07:28:56.369Z,62.16
2023-04-21T07:29:56.628Z,62.36
2023-04-21T07:30:56.908Z,62.33
2023-04-21T07:31:57.229Z,62.33
2023-04-21T07:32:57.476Z,62.43
2023-04-21T07:33:57.695Z,62.23
2023-04-21T07:34:58.083Z,62.54
2023-04-21T07:35:58.209Z,62.74
2023-04-21T07:36:58.422Z,62.23
2023-04-21T07:37:58.669Z,62.20
2023-04-21T07:38:58.948Z,62.20
2023-04-21T07:39:59.192Z,61.90
2023-04-21T07:40:59.418Z,61.49
2023-04-21T07:41:59.657Z,61.99
2023-04-21T07:42:59.930Z,60.68
2023-04-21T07:44:00.165Z,61.15
2023-04-21T07:45:00.420Z,61.66
2023-04-21T07:46:00.739Z,61.76
2023-04-21T07:47:01.000Z,61.97
2023-04-21T07:48:01.352Z,61.15
2023-04-21T07:49:03.785Z,60.95
2023-04-21T07:50:01.783Z,60.44
2023-04-21T07:51:02.036Z,61.05
2023-04-21T07:52:02.255Z,61.33
2023-04-21T07:53:02.481Z,60.82
2023-04-21T07:54:02.748Z,61.33
2023-04-21T07:55:03.038Z,61.13
2023-04-21T07:56:03.243Z,60.72
2023-04-21T07:57:03.562Z,60.72
2023-04-21T07:58:03.781Z,60.21
2023-04-21T07:59:03.984Z,60.61
2023-04-21T08:00:04.231Z,59.77
2023-04-21T08:01:04.575Z,59.67
2023-04-21T08:02:05.185Z,59.80
2023-04-21T08:03:05.439Z,59.77
2023-04-21T08:04:07.078Z,59.77
2023-04-21T08:05:05.848Z,60.08
2023-04-21T08:06:06.095Z,60.08
2023-04-21T08:07:06.342Z,60.08
2023-04-21T08:08:06.766Z,59.88
2023-04-21T08:09:06.814Z,59.67
2023-04-21T08:10:08.547Z,60.28
2023-04-21T08:11:09.120Z,59.95
2023-04-21T08:12:15.112Z,59.54
2023-04-21T08:13:07.956Z,59.24
2023-04-21T08:14:08.075Z,59.34
2023-04-21T08:15:08.487Z,59.34
2023-04-21T08:16:08.708Z,59.64
2023-04-21T08:17:08.978Z,59.03
2023-04-21T08:18:09.427Z,58.63
2023-04-21T08:19:09.492Z,58.22
2023-04-21T08:20:09.794Z,59.14
2023-04-21T08:21:10.052Z,59.11
2023-04-21T08:22:11.733Z,58.91
2023-04-21T08:23:10.562Z,59.01
2023-04-21T08:24:10.842Z,58.80
2023-04-21T08:25:11.059Z,59.11
2023-04-21T08:26:12.133Z,58.80
2023-04-21T08:27:12.393Z,58.67
2023-04-21T08:28:11.979Z,58.47
2023-04-21T08:29:12.250Z,57.86
2023-04-21T08:30:12.553Z,58.78
2023-04-21T08:31:13.510Z,58.98
2023-04-21T08:32:13.203Z,57.56
2023-04-21T08:33:13.290Z,57.35
2023-04-21T08:34:13.589Z,58.06
2023-04-21T08:35:14.615Z,58.65
2023-04-21T08:36:26.006Z,58.14
2023-04-21T08:37:16.352Z,58.04
2023-04-21T08:38:14.693Z,57.64
2023-04-21T08:39:14.984Z,57.33
2023-04-21T08:40:15.197Z,57.12
2023-04-21T08:41:15.440Z,57.33
2023-04-21T08:42:15.681Z,57.43
2023-04-21T08:43:15.923Z,56.90
2023-04-21T08:44:17.231Z,56.99
2023-04-21T08:45:16.418Z,56.70
2023-04-21T08:46:18.190Z,56.90
2023-04-21T08:47:16.950Z,57.10
2023-04-21T08:48:17.914Z,56.90
2023-04-21T08:49:17.575Z,56.70
2023-04-21T08:50:17.723Z,57.17
2023-04-21T08:51:18.020Z,56.87
2023-04-21T08:52:18.259Z,55.76
2023-04-21T08:53:18.531Z,55.85
2023-04-21T08:54:18.779Z,56.46
2023-04-21T08:55:19.025Z,55.15
2023-04-21T08:56:19.280Z,55.12
2023-04-21T08:57:19.517Z,54.31
2023-04-21T08:58:19.787Z,54.21
2023-04-21T08:59:20.217Z,54.82
2023-04-21T09:00:20.383Z,54.41
2023-04-21T09:01:20.797Z,53.91
2023-04-21T09:02:21.029Z,53.50
2023-04-21T09:03:26.078Z,52.99
2023-04-21T09:04:22.655Z,52.79
2023-04-21T09:05:22.116Z,53.19
2023-04-21T09:06:22.302Z,53.47
2023-04-21T09:07:22.306Z,53.58
2023-04-21T09:08:22.552Z,53.27
2023-04-21T09:09:22.813Z,53.67
2023-04-21T09:10:23.058Z,54.38
2023-04-21T09:11:24.056Z,53.47
2023-04-21T09:12:23.573Z,54.28
2023-04-21T09:13:23.831Z,55.57
2023-04-21T09:14:24.121Z,53.75
2023-04-21T09:15:24.336Z,52.23
2023-04-21T09:16:24.646Z,51.32
2023-04-21T09:17:24.874Z,50.51
2023-04-21T09:18:25.102Z,50.61
2023-04-21T09:19:25.367Z,51.22
2023-04-21T09:20:25.642Z,51.22
2023-04-21T09:21:25.920Z,51.73
2023-04-21T09:22:26.147Z,52.21
2023-04-21T09:23:26.407Z,50.89
2023-04-21T09:24:26.685Z,51.70
2023-04-21T09:25:26.933Z,52.11
2023-04-21T09:26:27.321Z,51.50
2023-04-21T09:27:27.566Z,51.37
2023-04-21T09:28:27.825Z,50.77
2023-04-21T09:29:28.069Z,50.06
2023-04-21T09:30:28.424Z,49.96
2023-04-21T09:31:28.763Z,50.67
2023-04-21T09:32:28.963Z,50.37
2023-04-21T09:33:34.311Z,49.05
2023-04-21T09:34:30.481Z,49.76
2023-04-21T09:35:30.527Z,49.76
2023-04-21T09:36:30.373Z,49.73
2023-04-21T09:37:30.458Z,49.13
2023-04-21T09:38:30.726Z,49.13
2023-04-21T09:39:45.698Z,48.72
2023-04-21T09:40:32.195Z,49.22
2023-04-21T09:41:31.506Z,48.11
2023-04-21T09:42:31.768Z,48.32
2023-04-21T09:43:32.046Z,48.52
2023-04-21T09:44:39.775Z,47.91
2023-04-21T09:45:40.228Z,47.61
2023-04-21T09:46:33.799Z,47.31
2023-04-21T09:47:33.838Z,48.32
2023-04-21T09:48:33.372Z,48.22
2023-04-21T09:49:33.604Z,48.52
2023-04-21T09:51:15.278Z,47.91
2023-04-21T09:52:34.425Z,48.32
2023-04-21T09:53:34.722Z,48.10
2023-04-21T09:54:35.095Z,47.59
2023-04-21T09:55:35.292Z,48.30
2023-04-21T09:56:35.540Z,48.60
2023-04-21T09:57:35.802Z,48.50
2023-04-21T09:58:36.079Z,48.27
2023-04-21T09:59:36.292Z,47.87
2023-04-21T10:00:36.522Z,47.67
2023-04-21T10:01:36.782Z,47.97
2023-04-21T10:02:37.194Z,47.06
2023-04-21T10:03:37.413Z,47.26
2023-04-21T10:04:38.007Z,47.16
2023-04-21T10:05:40.088Z,47.36
2023-04-21T10:06:38.895Z,47.56
2023-04-21T10:07:38.491Z,47.77
2023-04-21T10:08:38.768Z,46.96
2023-04-21T10:09:38.991Z,46.86
2023-04-21T10:10:39.249Z,46.84
2023-04-21T10:11:39.467Z,47.24
2023-04-21T10:12:39.733Z,47.34
2023-04-21T10:13:40.062Z,46.94
2023-04-21T10:14:40.303Z,46.94
2023-04-21T10:15:40.619Z,47.34
2023-04-21T10:16:40.982Z,47.54
2023-04-21T10:17:41.125Z,46.94
2023-04-21T10:18:41.386Z,46.73
2023-04-21T10:19:41.641Z,47.14
2023-04-21T10:20:41.877Z,48.35
2023-04-21T10:21:42.102Z,47.64
2023-04-21T10:22:42.353Z,47.14
2023-04-21T10:23:42.657Z,46.94
2023-04-21T10:24:42.908Z,47.14
2023-04-21T10:25:43.163Z,46.94
2023-04-21T10:26:43.391Z,46.73
2023-04-21T10:27:43.709Z,47.74
2023-04-21T10:28:43.949Z,47.34
2023-04-21T10:29:56.076Z,46.43
2023-04-21T10:30:45.455Z,46.53
2023-04-21T10:31:44.745Z,47.44
2023-04-21T10:32:44.997Z,47.34
2023-04-21T10:33:45.249Z,46.64
2023-04-21T10:34:45.486Z,45.61
2023-04-21T10:35:45.717Z,45.90
2023-04-21T10:36:45.986Z,46.11
2023-04-21T10:37:46.170Z,45.90
2023-04-21T10:38:46.423Z,45.81
2023-04-21T10:39:46.652Z,45.90
2023-04-21T10:40:46.908Z,45.70
2023-04-21T10:41:47.212Z,45.40
2023-04-21T10:42:47.449Z,45.50
2023-04-21T10:43:49.580Z,45.61
2023-04-21T10:44:48.034Z,45.81
2023-04-21T10:45:48.271Z,45.61
2023-04-21T10:46:48.559Z,45.78
2023-04-21T10:47:49.112Z,45.68
2023-04-21T10:48:49.100Z,46.29
2023-04-21T10:49:49.348Z,45.58
2023-04-21T10:50:49.597Z,45.28
2023-04-21T10:51:49.864Z,44.67
2023-04-21T10:52:50.125Z,44.87
2023-04-21T10:53:50.396Z,44.98
2023-04-21T10:54:50.641Z,45.28
2023-04-21T10:55:50.893Z,46.29
2023-04-21T10:56:51.108Z,45.89
2023-04-21T10:57:51.471Z,44.87
2023-04-21T10:58:51.715Z,45.78
2023-04-21T10:59:51.964Z,44.78
2023-04-21T11:00:52.978Z,44.78
2023-04-21T11:01:52.585Z,44.17
2023-04-21T11:02:52.927Z,44.67
2023-04-21T11:03:53.133Z,44.17
2023-04-21T11:04:53.739Z,43.66
2023-04-21T11:05:53.689Z,44.07
2023-04-21T11:06:54.687Z,44.17
2023-04-21T11:07:54.250Z,45.68
2023-04-21T11:08:54.518Z,44.07
2023-04-21T11:09:54.763Z,44.27
2023-04-21T11:10:55.067Z,44.87
2023-04-21T11:11:55.294Z,45.18
2023-04-21T11:12:55.498Z,45.28
2023-04-21T11:13:55.761Z,44.27
2023-04-21T11:14:56.076Z,44.67
2023-04-21T11:15:56.354Z,45.28
2023-04-21T11:16:56.631Z,44.78
2023-04-21T11:17:56.911Z,44.55
2023-04-21T11:18:57.212Z,45.06
2023-04-21T11:19:57.439Z,44.35
2023-04-21T11:20:57.669Z,44.45
2023-04-21T11:21:57.925Z,45.06
2023-04-21T11:22:58.148Z,43.65
2023-04-21T11:23:58.416Z,43.95
2023-04-21T11:24:58.676Z,44.55
2023-04-21T11:25:58.936Z,43.95
2023-04-21T11:26:59.177Z,42.74
2023-04-21T11:27:59.435Z,43.34
2023-04-21T11:28:59.671Z,43.34
2023-04-21T11:29:59.903Z,43.24
2023-04-21T11:31:00.230Z,43.04
2023-04-21T11:32:00.432Z,43.22
2023-04-21T11:33:00.700Z,43.22
2023-04-21T11:34:00.975Z,43.22
2023-04-21T11:35:01.207Z,42.61
2023-04-21T11:36:01.464Z,42.92
2023-04-21T11:37:01.720Z,43.73
2023-04-21T11:38:01.967Z,43.42
2023-04-21T11:39:02.207Z,44.13
2023-04-21T11:40:02.450Z,42.72
2023-04-21T11:41:02.739Z,42.52
2023-04-21T11:42:02.953Z,42.72
2023-04-21T11:43:03.236Z,42.92
2023-04-21T11:44:03.464Z,43.42
2023-04-21T11:45:03.701Z,43.82
2023-04-21T11:46:03.972Z,44.53
2023-04-21T11:47:04.187Z,44.13
2023-04-21T11:48:04.467Z,44.73
2023-04-21T11:49:04.650Z,44.53
2023-04-21T11:50:04.983Z,45.34
2023-04-21T11:51:05.190Z,43.22
2023-04-21T11:52:05.454Z,41.91
2023-04-21T11:53:05.694Z,42.11
2023-04-21T11:54:05.961Z,42.11
2023-04-21T11:55:06.205Z,43.42
2023-04-21T11:56:06.448Z,43.82
2023-04-21T11:57:06.698Z,42.40
2023-04-21T11:58:06.939Z,42.30
2023-04-21T11:59:07.170Z,41.39
2023-04-21T12:00:07.437Z,42.19
2023-04-21T12:01:07.673Z,42.82
2023-04-21T12:02:07.946Z,41.11
2023-04-21T12:03:08.524Z,41.00
2023-04-21T12:04:08.616Z,40.50
2023-04-21T12:05:09.101Z,40.50
2023-04-21T12:06:09.110Z,40.78
2023-04-21T12:07:09.319Z,40.69
2023-04-21T12:08:09.583Z,40.99
2023-04-21T12:09:09.812Z,40.69
2023-04-21T12:10:10.133Z,41.49
2023-04-21T12:11:10.365Z,40.78
2023-04-21T12:12:10.610Z,41.69
2023-04-21T12:13:10.848Z,42.60
2023-04-21T12:14:11.124Z,40.48
2023-04-21T12:15:11.353Z,40.18
2023-04-21T12:16:11.619Z,40.08
2023-04-21T12:17:11.867Z,40.99
2023-04-21T12:18:12.154Z,41.89
2023-04-21T12:19:12.413Z,42.60
2023-04-21T12:20:12.655Z,40.18
2023-04-21T12:21:12.911Z,40.28
2023-04-21T12:22:13.162Z,39.98
2023-04-21T12:23:13.409Z,39.48
2023-04-21T12:24:13.652Z,39.58
2023-04-21T12:25:13.918Z,40.08
2023-04-21T12:26:14.132Z,40.48
2023-04-21T12:27:14.362Z,39.58
2023-04-21T12:28:14.625Z,40.18
2023-04-21T12:29:14.850Z,41.39
2023-04-21T12:30:15.104Z,41.59
2023-04-21T12:31:15.379Z,40.28
2023-04-21T12:32:15.653Z,38.47
2023-04-21T12:33:15.944Z,38.37
2023-04-21T12:34:16.237Z,38.27
2023-04-21T12:35:16.500Z,38.77
2023-04-21T12:36:16.715Z,39.98
2023-04-21T12:37:16.975Z,38.87
2023-04-21T12:38:17.247Z,38.15
2023-04-21T12:39:17.500Z,37.85
2023-04-21T12:40:17.721Z,38.25
2023-04-21T12:41:18.092Z,38.37
2023-04-21T12:42:18.334Z,39.28
2023-04-21T12:43:18.618Z,39.28
2023-04-21T12:44:18.861Z,38.97
2023-04-21T12:45:19.117Z,39.25
2023-04-21T12:46:19.449Z,39.56
2023-04-21T12:47:19.646Z,38.45
2023-04-21T12:48:20.635Z,38.45
2023-04-21T12:49:20.176Z,38.25
2023-04-21T12:50:20.422Z,37.54
2023-04-21T12:51:20.701Z,37.65
2023-04-21T12:52:20.958Z,36.33
2023-04-21T12:53:21.221Z,36.64
2023-04-21T12:54:21.468Z,36.33
2023-04-21T12:55:21.691Z,36.15
2023-04-21T12:56:21.957Z,36.35
2023-04-21T12:57:22.234Z,37.04
2023-04-21T12:58:22.511Z,36.44